Time;durP1;ratioP1;P1;durP2;ratioP2;P2;SDS_P1;SDS_P2;PMS_P1;PMS_P2;Temp;Humidity;BMP_temperature;BMP_pressure;BME280_temperature;BME280_humidity;BME280_pressure;Samples;Min_cycle;Max_cycle;Signal;HPM_P1;HPM_P2
2022/10/28 00:01:24;;;;;;;;;6.33;5.00;;;;;20.91;55.40;101340.78;6213351;22;45236;-76
2022/10/28 00:03:52;;;;;;;;;6.33;6.33;;;;;20.88;55.48;101335.53;6213460;22;45435;-76
2022/10/28 00:06:30;;;;;;;;;;;;;;;;;;;;;
2022/10/28 00:08:57;;;;;;;;;5.33;5.33;;;;;20.92;55.09;101342.50;6213621;22;72932;-76
2022/10/28 00:11:28;;;;;;;;;5.67;4.67;;;;;20.80;55.47;101330.47;6215644;22;45246;-75
2022/10/28 00:13:55;;;;;;;;;6.33;5.00;;;;;20.84;55.68;101337.44;6215258;22;46025;-76
2022/10/28 00:16:24;;;;;;;;;5.00;4.00;;;;;20.80;55.45;101334.97;6215371;22;46429;-78
2022/10/28 00:18:52;;;;;;;;;6.00;5.00;;;;;20.86;55.59;101348.09;6214027;22;45265;-76
2022/10/28 00:21:21;;;;;;;;;10.33;6.00;;;;;20.83;55.42;101353.56;6213598;22;45455;-75
2022/10/28 00:23:46;;;;;;;;;6.67;6.00;;;;;20.80;55.47;101357.22;6213683;22;45309;-76
2022/10/28 00:26:17;;;;;;;;;9.00;8.33;;;;;20.78;55.52;101351.06;6215026;22;45317;-76
2022/10/28 00:28:53;;;;;;;;;8.33;7.00;;;;;20.74;55.68;101345.88;6215706;22;45368;-76
2022/10/28 00:31:20;;;;;;;;;6.33;6.33;;;;;20.80;55.22;101372.44;6217559;22;45272;-78
2022/10/28 00:33:46;;;;;;;;;9.00;6.00;;;;;20.70;55.66;101351.34;6214418;22;45681;-76
2022/10/28 00:36:16;;;;;;;;;6.00;6.00;;;;;20.79;55.74;101373.34;6184919;22;46984;-78
2022/10/28 00:38:46;;;;;;;;;10.33;7.33;;;;;20.74;55.68;101364.59;6216020;22;45241;-77
2022/10/28 00:41:14;;;;;;;;;7.33;6.00;;;;;20.77;55.82;101369.84;6214955;22;45276;-76
2022/10/28 00:43:48;;;;;;;;;4.67;4.67;;;;;20.70;55.88;101356.69;6217094;22;45170;-76
2022/10/28 00:46:19;;;;;;;;;7.00;6.00;;;;;20.67;56.10;101356.81;6216586;22;46394;-76
2022/10/28 00:48:53;;;;;;;;;4.67;4.67;;;;;20.69;55.90;101352.28;6216838;22;45507;-76
2022/10/28 00:51:21;;;;;;;;;5.67;5.00;;;;;20.69;55.71;101354.09;6217676;22;45238;-77
2022/10/28 00:53:49;;;;;;;;;6.67;5.33;;;;;20.61;56.11;101340.97;6217089;22;45244;-76
2022/10/28 00:56:16;;;;;;;;;8.00;5.67;;;;;20.57;56.16;101339.31;6189734;22;46645;-76
2022/10/28 00:58:42;;;;;;;;;8.00;5.67;;;;;20.58;56.27;101340.19;6216944;22;45395;-76
2022/10/28 01:01:07;;;;;;;;;11.67;7.67;;;;;20.48;56.41;101332.47;6190046;22;45329;-76
2022/10/28 01:03:35;;;;;;;;;7.00;7.00;;;;;20.51;56.73;101338.66;6217040;22;45461;-76
2022/10/28 01:06:00;;;;;;;;;7.33;7.00;;;;;20.50;56.74;101345.78;6217088;22;45358;-76
2022/10/28 01:08:26;;;;;;;;;6.00;4.67;;;;;20.48;56.93;101336.97;6189631;22;45356;-75
2022/10/28 01:11:13;;;;;;;;;8.67;7.67;;;;;20.41;56.86;101332.75;6217431;22;45221;-75
2022/10/28 01:14:03;;;;;;;;;7.00;6.00;;;;;20.43;57.12;101350.47;6190148;22;45359;-76
2022/10/28 01:16:35;;;;;;;;;10.33;8.67;;;;;20.39;57.27;101343.47;6189777;22;47116;-77
2022/10/28 01:19:40;;;;;;;;;8.00;7.33;;;;;20.28;57.23;101338.50;6189055;22;45487;-75
2022/10/28 01:22:08;;;;;;;;;8.67;7.00;;;;;20.31;57.07;101342.88;6217305;22;45185;-76
2022/10/28 01:25:08;;;;;;;;;6.67;6.67;;;;;20.28;57.62;101348.34;6217100;22;45507;-76
2022/10/28 01:28:01;;;;;;;;;9.00;7.00;;;;;20.24;57.29;101347.56;6216928;22;45343;-76
2022/10/28 01:30:43;;;;;;;;;7.67;7.67;;;;;20.18;57.75;101339.78;6217029;22;45149;-76
2022/10/28 01:33:25;;;;;;;;;8.67;8.00;;;;;20.15;58.01;101330.97;6217546;22;45331;-76
2022/10/28 01:36:00;;;;;;;;;11.00;9.33;;;;;20.16;57.78;101330.94;6217080;22;45269;-75
2022/10/28 01:38:33;;;;;;;;;6.33;5.00;;;;;20.11;58.19;101332.88;6217042;22;45539;-76
2022/10/28 01:41:18;;;;;;;;;6.33;5.67;;;;;20.15;57.61;101336.31;6189499;22;45967;-76
2022/10/28 01:43:54;;;;;;;;;7.33;7.33;;;;;20.14;57.87;101327.41;6189623;22;45203;-75
2022/10/28 01:46:26;;;;;;;;;9.33;7.00;;;;;20.16;57.81;101332.72;6217167;22;45183;-76
2022/10/28 01:48:58;;;;;;;;;6.00;5.33;;;;;20.04;58.23;101318.84;6216798;22;45234;-76
2022/10/28 01:51:43;;;;;;;;;8.00;8.00;;;;;20.04;58.05;101317.97;6217336;22;45209;-76
2022/10/28 01:54:12;;;;;;;;;7.33;7.33;;;;;20.03;57.88;101325.13;6217018;22;45286;-76
2022/10/28 01:56:41;;;;;;;;;7.67;7.67;;;;;20.04;58.30;101323.31;6217134;22;45197;-76
2022/10/28 01:59:12;;;;;;;;;9.67;7.00;;;;;19.96;58.26;101314.69;6189442;22;46452;-77
2022/10/28 02:01:37;;;;;;;;;11.33;9.33;;;;;20.00;58.78;101317.19;6216701;22;45154;-76
2022/10/28 02:04:03;;;;;;;;;7.67;5.33;;;;;20.02;58.30;101325.16;6216979;22;45270;-76
2022/10/28 02:06:32;;;;;;;;;7.67;7.00;;;;;19.94;58.45;101321.88;6217243;22;45122;-76
2022/10/28 02:09:24;;;;;;;;;6.67;4.67;;;;;20.00;58.50;101325.22;6216883;22;45308;-76
2022/10/28 02:12:00;;;;;;;;;10.00;8.00;;;;;19.88;58.49;101314.06;6216344;22;45506;-76
2022/10/28 02:14:54;;;;;;;;;9.00;7.67;;;;;19.88;58.81;101324.75;6217136;22;45256;-76
2022/10/28 02:17:35;;;;;;;;;12.33;9.00;;;;;19.80;58.82;101319.66;6216543;22;45130;-76
2022/10/28 02:20:26;;;;;;;;;9.67;8.00;;;;;19.71;58.59;101309.28;6214287;22;46805;-76
2022/10/28 02:22:57;;;;;;;;;9.00;6.67;;;;;19.69;59.03;101316.47;6216699;22;45146;-77
2022/10/28 02:25:42;;;;;;;;;6.00;6.00;;;;;19.62;59.37;101310.44;6217293;22;45230;-76
2022/10/28 02:28:19;;;;;;;;;8.67;8.67;;;;;19.55;59.50;101308.88;6216842;22;45178;-76
2022/10/28 02:30:47;;;;;;;;;11.00;9.00;;;;;19.51;59.47;101304.53;6216980;22;45649;-76
2022/10/28 02:33:18;;;;;;;;;8.00;7.00;;;;;19.55;59.63;101314.22;6189623;22;45440;-76
2022/10/28 02:35:50;;;;;;;;;6.67;5.67;;;;;19.44;59.81;101295.00;6189234;22;45179;-76
2022/10/28 02:38:26;;;;;;;;;9.33;7.67;;;;;19.42;59.75;101303.03;6216624;22;45487;-77
2022/10/28 02:40:55;;;;;;;;;9.00;8.00;;;;;19.46;60.19;101306.47;6216504;22;45578;-76
2022/10/28 02:43:23;;;;;;;;;10.33;9.33;;;;;19.37;59.57;101294.28;6216487;22;45170;-76
2022/10/28 02:45:54;;;;;;;;;11.33;9.00;;;;;19.39;60.31;101306.69;6189212;22;45312;-77
2022/10/28 02:48:47;;;;;;;;;10.00;8.33;;;;;19.47;60.02;101305.56;6216610;22;45170;-76
2022/10/28 02:51:17;;;;;;;;;10.00;9.00;;;;;19.44;59.91;101308.34;6216149;22;46388;-76
2022/10/28 02:54:08;;;;;;;;;8.33;8.00;;;;;19.45;60.00;101310.06;6216373;22;45396;-76
2022/10/28 02:56:44;;;;;;;;;9.33;6.00;;;;;19.41;60.27;101303.97;6216567;22;45243;-76
2022/10/28 02:59:12;;;;;;;;;11.33;9.67;;;;;19.38;60.42;101301.41;6216791;22;45105;-77
2022/10/28 03:18:37;;;;;;;;;8.33;7.00;;;;;19.34;60.27;101289.06;6185030;22;72678;-76
2022/10/28 03:21:03;;;;;;;;;6.67;6.67;;;;;19.27;60.78;101282.16;6214244;22;45472;-76
2022/10/28 03:23:28;;;;;;;;;8.67;7.67;;;;;19.29;60.72;101278.50;6216194;22;45220;-76
2022/10/28 03:25:53;;;;;;;;;9.00;5.00;;;;;19.26;60.39;101272.41;6216715;22;45270;-76
2022/10/28 03:28:19;;;;;;;;;5.33;5.00;;;;;19.23;60.53;101259.16;6216708;22;45154;-76
2022/10/28 03:30:44;;;;;;;;;7.00;7.00;;;;;19.25;60.83;101265.31;6217798;22;45228;-76
2022/10/28 03:33:09;;;;;;;;;7.33;6.00;;;;;19.30;60.26;101274.03;6217614;22;45164;-76
2022/10/28 03:35:35;;;;;;;;;10.00;7.33;;;;;19.25;60.51;101262.66;6217700;22;45347;-76
2022/10/28 03:38:00;;;;;;;;;9.33;7.67;;;;;19.25;60.56;101268.88;6217568;22;45637;-76
2022/10/28 03:40:25;;;;;;;;;9.00;8.00;;;;;19.16;60.39;101253.13;6217704;22;45457;-76
2022/10/28 03:42:51;;;;;;;;;9.00;8.33;;;;;19.18;60.87;101257.50;6190466;22;45214;-77
2022/10/28 03:45:16;;;;;;;;;7.00;6.00;;;;;19.18;60.86;101268.16;6218034;22;45142;-76
2022/10/28 03:47:41;;;;;;;;;8.67;8.67;;;;;19.13;60.74;101248.75;6217753;22;45415;-76
2022/10/28 03:50:07;;;;;;;;;8.33;7.33;;;;;19.14;60.82;101260.31;6217363;22;45390;-76
2022/10/28 03:52:32;;;;;;;;;8.33;8.00;;;;;19.16;60.92;101264.69;6217743;22;45273;-76
2022/10/28 03:54:58;;;;;;;;;12.00;9.67;;;;;19.14;60.90;101253.19;6217405;22;45377;-76
2022/10/28 03:57:23;;;;;;;;;8.33;7.00;;;;;19.09;60.97;101252.44;6217494;22;45347;-76
2022/10/28 03:59:49;;;;;;;;;10.00;8.67;;;;;19.13;60.78;101248.75;6190100;22;46506;-76
2022/10/28 04:02:14;;;;;;;;;7.00;6.00;;;;;19.09;60.86;101240.91;6217738;22;45308;-76
2022/10/28 04:04:40;;;;;;;;;7.67;7.33;;;;;19.08;61.16;101249.81;6190418;22;45421;-76
2022/10/28 04:07:05;;;;;;;;;8.67;7.67;;;;;19.08;61.36;101249.81;6217805;22;45282;-76
2022/10/28 04:09:31;;;;;;;;;11.67;9.00;;;;;19.07;60.83;101254.28;6217290;22;45553;-76
2022/10/28 04:11:56;;;;;;;;;7.00;7.00;;;;;19.07;61.31;101250.75;6217778;22;45347;-76
2022/10/28 04:14:21;;;;;;;;;12.00;10.67;;;;;19.03;61.02;101249.97;6217822;22;45154;-76
2022/10/28 04:16:47;;;;;;;;;11.33;8.33;;;;;19.04;61.18;101254.38;6217749;22;45141;-76
2022/10/28 04:19:12;;;;;;;;;12.67;10.00;;;;;19.09;61.39;101259.59;6217035;22;46187;-76
2022/10/28 04:21:37;;;;;;;;;6.67;5.67;;;;;19.05;61.52;101255.25;6217654;22;45151;-76
2022/10/28 04:24:03;;;;;;;;;9.67;7.33;;;;;19.00;61.37;101247.38;6217880;22;45095;-76
2022/10/28 04:26:30;;;;;;;;;8.00;8.00;;;;;19.07;61.13;101272.09;6217743;22;45565;-76
2022/10/28 04:28:56;;;;;;;;;9.00;7.00;;;;;19.00;61.03;101258.06;6217448;22;45538;-76
2022/10/28 04:31:21;;;;;;;;;9.00;7.00;;;;;18.97;61.50;101252.81;6217415;22;45178;-77
2022/10/28 04:33:46;;;;;;;;;6.33;5.67;;;;;19.04;61.25;101258.84;6217540;22;45495;-76
2022/10/28 04:36:12;;;;;;;;;8.00;7.00;;;;;19.10;61.14;101264.00;6217638;22;45500;-76
2022/10/28 04:38:37;;;;;;;;;7.67;7.00;;;;;19.09;61.21;101255.13;6217337;22;46270;-76
2022/10/28 04:41:02;;;;;;;;;11.00;9.67;;;;;19.11;60.94;101252.38;6216827;22;45407;-76
2022/10/28 04:43:28;;;;;;;;;8.00;7.00;;;;;19.09;60.62;101235.56;6217871;22;45253;-76
2022/10/28 04:45:53;;;;;;;;;8.67;8.00;;;;;19.16;60.91;101248.69;6217685;22;45502;-76
2022/10/28 04:48:19;;;;;;;;;10.00;8.33;;;;;19.08;60.80;101239.13;6217303;22;45300;-76
2022/10/28 04:50:44;;;;;;;;;6.67;6.67;;;;;19.15;60.87;101249.59;6217516;22;45266;-76
2022/10/28 04:53:11;;;;;;;;;6.33;5.67;;;;;19.21;60.67;101258.31;6217146;22;45405;-76
2022/10/28 04:55:36;;;;;;;;;7.33;7.33;;;;;19.16;60.11;101248.69;6217393;22;45407;-76
2022/10/28 04:58:02;;;;;;;;;9.00;8.67;;;;;19.12;60.11;101241.69;6217276;22;46182;-76
2022/10/28 05:00:28;;;;;;;;;9.67;7.67;;;;;19.20;60.31;101241.44;6217273;22;45234;-76
2022/10/28 05:02:54;;;;;;;;;8.00;8.00;;;;;19.27;59.88;101260.78;6217666;22;45290;-76
2022/10/28 05:05:20;;;;;;;;;7.33;7.00;;;;;19.26;60.19;101246.56;6217073;22;45205;-76
2022/10/28 05:07:45;;;;;;;;;7.33;6.00;;;;;19.27;59.74;101240.34;6217220;22;46104;-75
2022/10/28 05:10:14;;;;;;;;;9.67;7.00;;;;;19.33;59.38;101242.78;6217551;22;45273;-76
2022/10/28 05:12:44;;;;;;;;;8.33;6.00;;;;;19.36;59.53;101257.84;6190105;22;45415;-76
2022/10/28 05:15:10;;;;;;;;;6.00;6.00;;;;;19.31;59.60;101239.28;6189919;22;45456;-76
2022/10/28 05:17:40;;;;;;;;;8.00;6.33;;;;;19.36;59.06;101245.34;6217097;22;46355;-76
2022/10/28 05:20:06;;;;;;;;;7.67;7.00;;;;;19.32;59.28;101238.34;6188695;22;45415;-76
2022/10/28 05:22:31;;;;;;;;;6.67;5.33;;;;;19.42;58.97;101244.28;6217107;22;45420;-76
2022/10/28 05:24:57;;;;;;;;;6.00;6.00;;;;;19.44;59.00;101257.59;6216943;22;45139;-76
2022/10/28 05:27:23;;;;;;;;;8.67;4.33;;;;;19.47;58.42;101252.16;6216828;22;45220;-76
2022/10/28 05:29:48;;;;;;;;;10.00;8.00;;;;;19.45;58.48;101249.53;6217428;22;45152;-76
2022/10/28 05:32:13;;;;;;;;;7.00;5.67;;;;;19.48;58.43;101240.53;6217155;22;45419;-76
2022/10/28 05:34:39;;;;;;;;;7.33;7.33;;;;;19.51;58.08;101246.69;6217165;22;45173;-76
2022/10/28 05:37:04;;;;;;;;;7.00;6.67;;;;;19.49;58.44;101239.63;6189803;22;47248;-76
2022/10/28 05:39:29;;;;;;;;;8.00;7.33;;;;;19.54;58.00;101261.69;6217012;22;45146;-76
2022/10/28 05:41:55;;;;;;;;;4.00;4.00;;;;;19.45;58.16;101249.53;6189984;22;45379;-76
2022/10/28 05:44:20;;;;;;;;;5.67;5.67;;;;;19.48;58.24;101243.22;6217244;22;45378;-76
2022/10/28 05:46:45;;;;;;;;;5.33;5.33;;;;;19.45;58.51;101235.31;6217040;22;46353;-75
2022/10/28 05:49:10;;;;;;;;;7.00;4.33;;;;;19.45;58.19;101245.97;6217076;22;45153;-76
2022/10/28 05:51:36;;;;;;;;;6.67;5.67;;;;;19.37;58.42;101236.41;6217393;22;45289;-76
2022/10/28 05:54:01;;;;;;;;;8.00;6.67;;;;;19.42;57.85;101262.97;6217104;22;45149;-76
2022/10/28 05:56:26;;;;;;;;;9.00;9.00;;;;;19.38;58.25;101246.19;6217005;22;45520;-76
2022/10/28 05:58:52;;;;;;;;;8.33;8.33;;;;;19.31;58.13;101241.09;6217236;22;45428;-76
2022/10/28 06:01:17;;;;;;;;;7.00;7.00;;;;;19.32;58.22;101245.50;6217093;22;45343;-76
2022/10/28 06:03:42;;;;;;;;;7.00;7.00;;;;;19.28;57.97;101249.22;6216962;22;45331;-76
2022/10/28 06:06:08;;;;;;;;;8.33;6.00;;;;;19.28;58.09;101247.41;6189750;22;46575;-76
2022/10/28 06:08:33;;;;;;;;;10.67;9.33;;;;;19.35;58.08;101261.41;6216848;22;45326;-76
2022/10/28 06:11:00;;;;;;;;;8.33;6.33;;;;;19.26;57.87;101261.72;6189945;22;45820;-76
2022/10/28 06:13:25;;;;;;;;;10.33;7.00;;;;;19.29;58.46;101257.16;6217169;22;45325;-76
2022/10/28 06:15:54;;;;;;;;;6.33;5.33;;;;;19.24;58.54;101260.88;6216933;22;45338;-75
2022/10/28 06:18:20;;;;;;;;;6.33;6.33;;;;;19.23;58.08;101269.84;6216213;22;45250;-76
2022/10/28 06:20:51;;;;;;;;;9.00;7.67;;;;;19.15;58.20;101262.94;6188822;22;45273;-75
2022/10/28 06:23:17;;;;;;;;;10.33;7.00;;;;;19.13;58.54;101255.88;6216997;22;45278;-76
2022/10/28 06:25:42;;;;;;;;;10.67;7.67;;;;;19.16;58.37;101266.47;6216720;22;45294;-75
2022/10/28 06:28:08;;;;;;;;;8.00;7.00;;;;;19.16;58.14;101256.69;6216863;22;45193;-75
2022/10/28 06:30:34;;;;;;;;;8.67;8.33;;;;;19.17;58.19;101285.13;6217059;22;45213;-75
2022/10/28 06:32:59;;;;;;;;;12.00;8.00;;;;;19.14;58.22;101271.88;6216635;22;45166;-75
2022/10/28 06:35:25;;;;;;;;;11.00;8.00;;;;;19.20;57.96;101293.97;6216405;22;45199;-75
2022/10/28 06:37:56;;;;;;;;;7.33;6.33;;;;;19.27;57.89;101284.81;6216796;22;45283;-75
2022/10/28 06:40:25;;;;;;;;;9.00;9.00;;;;;19.26;57.52;101272.41;6216039;22;45283;-75
2022/10/28 06:43:02;;;;;;;;;8.00;6.67;;;;;19.24;57.71;101274.25;6216660;22;45169;-75
2022/10/28 06:45:29;;;;;;;;;7.67;7.00;;;;;19.26;57.37;101280.41;6216259;22;45605;-75
2022/10/28 06:48:04;;;;;;;;;9.33;7.00;;;;;19.27;57.50;101293.72;6214469;22;45440;-75
2022/10/28 06:50:30;;;;;;;;;5.67;5.67;;;;;19.34;57.22;101308.59;6216637;22;45240;-76
2022/10/28 06:52:58;;;;;;;;;8.67;7.67;;;;;19.28;57.26;101307.94;6189096;22;45356;-76
2022/10/28 06:55:25;;;;;;;;;6.67;6.33;;;;;19.29;57.91;101299.00;6216101;22;46184;-75
2022/10/28 06:57:51;;;;;;;;;9.67;8.67;;;;;19.32;57.45;101302.44;6216307;22;45154;-76
2022/10/28 07:00:17;;;;;;;;;9.67;8.00;;;;;19.34;57.97;101315.75;6189101;22;45423;-75
2022/10/28 07:02:42;;;;;;;;;8.00;8.00;;;;;19.32;57.55;101312.25;6215872;22;45373;-75
2022/10/28 07:05:08;;;;;;;;;9.00;7.67;;;;;19.30;57.59;101308.75;6217245;22;45590;-75
2022/10/28 07:07:36;;;;;;;;;8.67;7.00;;;;;19.34;57.45;101334.44;6217606;22;45308;-75
2022/10/28 07:10:04;;;;;;;;;9.67;8.00;;;;;19.35;57.53;101331.75;6217402;22;45311;-74
2022/10/28 07:12:30;;;;;;;;;11.00;8.50;;;;;19.35;57.49;101336.19;6215524;22;45254;-75
2022/10/28 07:14:55;;;;;;;;;8.67;6.67;;;;;19.33;57.17;101327.38;6217307;22;46431;-74
2022/10/28 07:17:21;;;;;;;;;11.67;8.00;;;;;19.37;57.59;101326.34;6217402;22;45131;-74
2022/10/28 07:19:46;;;;;;;;;7.33;6.33;;;;;19.42;57.60;101353.78;6216786;22;45750;-74
2022/10/28 07:22:11;;;;;;;;;11.00;9.33;;;;;19.45;57.50;101334.13;6217571;22;45146;-74
2022/10/28 07:24:37;;;;;;;;;9.33;8.00;;;;;19.47;57.36;101342.97;6217336;22;45461;-76
2022/10/28 07:27:02;;;;;;;;;7.33;6.00;;;;;19.55;57.23;101354.28;6217358;22;45321;-74
2022/10/28 07:29:28;;;;;;;;;9.25;9.00;;;;;19.58;57.39;101356.84;6217525;22;45335;-74
2022/10/28 07:31:54;;;;;;;;;8.00;8.00;;;;;19.68;56.78;101363.69;6217383;22;45511;-75
2022/10/28 07:34:20;;;;;;;;;10.00;8.00;;;;;19.75;56.33;101351.88;6189627;22;46343;-75
2022/10/28 07:36:49;;;;;;;;;6.67;6.67;;;;;19.85;55.63;101362.25;6190230;22;45645;-75
2022/10/28 07:39:15;;;;;;;;;8.33;7.33;;;;;19.97;55.97;101361.88;6217424;22;45161;-76
2022/10/28 07:41:40;;;;;;;;;8.00;7.67;;;;;20.08;55.56;101362.41;6216745;22;45170;-75
2022/10/28 07:44:06;;;;;;;;;8.33;7.33;;;;;20.18;55.13;101347.78;6217047;22;45513;-77
2022/10/28 07:46:32;;;;;;;;;7.67;7.67;;;;;20.24;54.93;101373.44;6190029;22;45248;-77
2022/10/28 07:48:57;;;;;;;;;11.67;6.33;;;;;20.35;54.64;101354.34;6216931;22;45171;-77
2022/10/28 07:51:22;;;;;;;;;8.00;7.67;;;;;20.47;54.24;101368.19;6189940;22;45342;-76
2022/10/28 07:53:48;;;;;;;;;8.33;5.67;;;;;20.58;53.94;101386.56;6189455;22;46727;-76
2022/10/28 07:56:13;;;;;;;;;10.67;8.67;;;;;20.67;53.40;101383.56;6189863;22;45372;-75
2022/10/28 07:58:40;;;;;;;;;6.33;6.33;;;;;20.77;53.20;101383.22;6217451;22;45245;-75
2022/10/28 08:01:07;;;;;;;;;8.00;5.00;;;;;20.82;53.27;101376.78;6216727;22;45260;-75
2022/10/28 08:03:34;;;;;;;;;8.33;7.00;;;;;20.89;53.00;101389.00;6216543;22;46622;-76
2022/10/28 08:06:05;;;;;;;;;7.00;6.33;;;;;20.96;52.62;101392.34;6216561;22;45162;-76
2022/10/28 08:08:32;;;;;;;;;8.67;6.67;;;;;21.03;52.51;101396.53;6189393;22;45210;-76
2022/10/28 08:10:57;;;;;;;;;9.00;8.00;;;;;21.09;52.68;101393.66;6188974;22;45213;-77
2022/10/28 08:13:22;;;;;;;;;7.33;7.33;;;;;21.17;51.79;101414.78;6189603;22;45911;-76
2022/10/28 08:15:54;;;;;;;;;2.00;2.00;;;;;21.24;52.06;101416.28;6189287;22;45320;-76
2022/10/28 08:18:20;;;;;;;;;6.67;5.00;;;;;21.28;51.97;101420.59;6216875;22;45332;-76
2022/10/28 08:20:47;;;;;;;;;7.67;7.33;;;;;21.32;51.70;101414.19;6216207;22;45497;-75
2022/10/28 08:23:12;;;;;;;;;7.33;6.33;;;;;21.42;51.58;101412.06;6214567;22;47287;-76
2022/10/28 08:25:38;;;;;;;;;6.00;6.00;;;;;21.47;51.33;101419.94;6216935;22;45248;-76
2022/10/28 08:28:03;;;;;;;;;9.67;7.67;;;;;21.57;51.03;101432.03;6189321;22;45217;-76
2022/10/28 08:30:28;;;;;;;;;7.33;6.00;;;;;21.55;51.12;101418.72;6216904;22;45204;-76
2022/10/28 08:32:54;;;;;;;;;7.67;7.00;;;;;21.60;51.15;101421.22;6216794;22;46208;-76
2022/10/28 08:35:22;;;;;;;;;11.00;7.33;;;;;21.62;50.75;101421.16;6188672;22;45823;-75
2022/10/28 08:37:51;;;;;;;;;9.00;7.67;;;;;21.65;50.99;101434.41;6216515;22;45247;-77
2022/10/28 08:40:18;;;;;;;;;7.67;5.67;;;;;21.62;50.81;101422.00;6214530;22;45257;-76
2022/10/28 08:42:48;;;;;;;;;10.33;8.00;;;;;21.69;50.66;101425.34;6216537;22;45700;-76
2022/10/28 08:45:32;;;;;;;;;7.67;6.67;;;;;21.75;50.56;101447.41;6216482;22;45332;-75
2022/10/28 08:48:12;;;;;;;;;8.00;5.33;;;;;21.79;50.82;101458.91;6216791;22;45414;-75
2022/10/28 08:50:49;;;;;;;;;8.00;7.67;;;;;21.79;50.29;101457.09;6183411;22;45803;-74
2022/10/28 08:53:47;;;;;;;;;6.67;5.00;;;;;21.89;50.54;101465.66;6214072;22;45591;-77
2022/10/28 08:56:44;;;;;;;;;8.00;7.00;;;;;21.91;50.17;101460.22;6136996;22;45388;-76
2022/10/28 08:59:18;;;;;;;;;6.00;6.00;;;;;21.92;50.41;101472.66;6214997;22;45423;-76
2022/10/28 09:01:56;;;;;;;;;10.67;6.00;;;;;21.98;50.43;101488.53;6212084;22;45328;-76
2022/10/28 09:04:44;;;;;;;;;8.67;8.00;;;;;22.00;50.30;101500.09;6214589;22;46452;-77
2022/10/28 09:07:19;;;;;;;;;10.00;7.00;;;;;21.93;50.36;101480.66;6214788;22;45320;-76
2022/10/28 09:09:46;;;;;;;;;8.00;8.00;;;;;21.98;50.30;101476.00;6215071;22;45430;-76
2022/10/28 09:12:51;;;;;;;;;6.00;6.00;;;;;21.99;50.14;101490.28;6214445;22;45431;-76
2022/10/28 09:15:44;;;;;;;;;9.00;7.33;;;;;21.92;50.01;101484.28;6185685;22;47787;-76
2022/10/28 09:18:42;;;;;;;;;8.33;6.33;;;;;21.90;50.33;101483.47;6214221;22;45308;-76
2022/10/28 09:21:19;;;;;;;;;9.33;8.00;;;;;21.94;50.45;101474.34;6213903;22;45421;-78
2022/10/28 09:23:56;;;;;;;;;10.33;8.67;;;;;21.98;50.56;101492.09;6212227;22;45399;-77
2022/10/28 09:26:46;;;;;;;;;10.00;8.00;;;;;22.02;50.39;101493.72;6212119;22;47045;-74
2022/10/28 09:29:30;;;;;;;;;9.67;6.67;;;;;21.93;50.13;101483.34;6188254;22;45221;-75
2022/10/28 09:32:17;;;;;;;;;6.33;6.00;;;;;22.03;50.27;101498.16;6215707;22;45317;-74
2022/10/28 09:34:52;;;;;;;;;9.67;7.67;;;;;22.05;50.63;101497.19;6187784;22;45872;-74
2022/10/28 09:37:26;;;;;;;;;10.00;8.00;;;;;22.10;50.18;101498.75;6188291;22;46829;-75
2022/10/28 09:40:15;;;;;;;;;9.00;7.67;;;;;22.17;50.24;101504.78;6215144;22;45581;-74
2022/10/28 09:42:49;;;;;;;;;9.33;9.00;;;;;22.23;50.57;101500.06;6191525;22;45356;-75
2022/10/28 09:45:23;;;;;;;;;11.33;9.67;;;;;22.33;50.35;101495.19;6214552;22;45376;-76
2022/10/28 09:48:11;;;;;;;;;10.00;7.67;;;;;22.43;50.53;101507.31;6215306;22;45501;-75
2022/10/28 09:50:37;;;;;;;;;9.00;8.00;;;;;22.52;50.13;101502.50;6215473;22;45466;-75
2022/10/28 09:53:13;;;;;;;;;6.33;5.00;;;;;22.62;50.02;101503.88;6215403;22;45081;-76
2022/10/28 09:55:38;;;;;;;;;8.33;6.33;;;;;22.70;50.22;101501.72;6215762;22;45230;-74
2022/10/28 09:58:04;;;;;;;;;8.67;7.33;;;;;22.78;49.52;101504.97;6187602;22;45723;-76
2022/10/28 10:00:30;;;;;;;;;11.00;9.67;;;;;22.86;50.04;101504.63;6188324;22;45862;-74
2022/10/28 10:02:57;;;;;;;;;6.67;4.67;;;;;22.93;49.36;101510.59;6215808;22;45445;-75
2022/10/28 10:05:24;;;;;;;;;7.00;7.00;;;;;23.01;49.47;101520.09;6215718;22;45277;-75
2022/10/28 10:07:55;;;;;;;;;8.33;7.00;;;;;23.09;48.96;101531.41;6215432;22;45335;-74
2022/10/28 10:10:29;;;;;;;;;8.67;7.00;;;;;23.19;49.19;101531.88;6215828;22;45219;-74
2022/10/28 10:12:58;;;;;;;;;8.33;8.33;;;;;23.27;48.99;101528.84;6215402;22;45320;-75
2022/10/28 10:15:41;;;;;;;;;11.33;8.33;;;;;23.34;49.21;101523.13;6188646;22;45502;-74
2022/10/28 10:18:15;;;;;;;;;10.67;9.33;;;;;23.48;48.91;101538.63;6214871;22;45298;-74
2022/10/28 10:20:46;;;;;;;;;9.00;8.67;;;;;23.60;49.26;101550.63;6187158;22;45234;-74
2022/10/28 10:23:22;;;;;;;;;10.00;9.00;;;;;23.63;48.74;101538.88;6188091;22;45420;-74
2022/10/28 10:25:54;;;;;;;;;8.00;7.00;;;;;23.74;47.98;101539.31;6187743;22;45999;-75
2022/10/28 10:28:25;;;;;;;;;7.00;6.00;;;;;23.91;48.26;101550.13;6187060;22;46198;-77
2022/10/28 10:30:54;;;;;;;;;7.33;6.33;;;;;23.95;48.05;101540.09;6187499;22;45209;-74
2022/10/28 10:33:32;;;;;;;;;11.33;7.67;;;;;24.12;47.63;101536.63;6214743;22;45408;-74
2022/10/28 10:36:02;;;;;;;;;7.67;7.67;;;;;24.35;47.32;101549.88;6214985;22;45246;-75
2022/10/28 10:38:29;;;;;;;;;6.00;4.67;;;;;24.48;46.87;101533.13;6214023;22;45615;-74
2022/10/28 10:40:55;;;;;;;;;9.00;7.67;;;;;24.63;46.84;101532.38;6214388;22;45336;-74
2022/10/28 10:43:30;;;;;;;;;7.67;7.33;;;;;24.93;46.67;101545.22;6215256;22;45269;-75
2022/10/28 10:46:15;;;;;;;;;9.00;8.00;;;;;25.33;46.69;101551.28;6187859;22;45240;-74
2022/10/28 10:48:41;;;;;;;;;8.00;8.00;;;;;26.02;45.52;101545.75;6186672;22;46376;-75
2022/10/28 10:51:09;;;;;;;;;5.67;5.67;;;;;26.72;44.82;101558.91;6215154;22;45454;-75
2022/10/28 10:53:37;;;;;;;;;10.67;9.00;;;;;27.37;43.45;101564.06;6214824;22;45231;-75
2022/10/28 10:56:07;;;;;;;;;10.67;8.33;;;;;27.68;42.35;101566.59;6214755;22;45392;-75
2022/10/28 10:58:39;;;;;;;;;10.33;9.00;;;;;28.11;41.96;101566.59;6187849;22;48065;-75
2022/10/28 11:01:08;;;;;;;;;8.67;8.67;;;;;28.61;40.90;101575.16;6214654;22;45304;-75
2022/10/28 11:03:35;;;;;;;;;10.33;9.00;;;;;28.89;40.61;101563.31;6214719;22;45274;-75
2022/10/28 11:06:03;;;;;;;;;9.67;7.67;;;;;29.32;39.81;101568.50;6186870;22;45494;-75
2022/10/28 11:08:40;;;;;;;;;8.00;6.67;;;;;29.64;39.06;101573.56;6214794;22;46400;-75
2022/10/28 11:11:32;;;;;;;;;7.67;6.67;;;;;30.07;38.45;101586.75;6188038;22;45528;-75
2022/10/28 11:14:34;;;;;;;;;;;;;;;;;;;;;
2022/10/28 11:17:53;;;;;;;;;;;;;;;;;;;;;
2022/10/28 11:21:04;;;;;;;;;;;;;;;;;;;;;
2022/10/28 11:23:49;;;;;;;;;;;;;;;;;;;;;
2022/10/28 11:27:05;;;;;;;;;;;;;;;;;;;;;
2022/10/28 11:30:30;;;;;;;;;;;;;;;;;;;;;
2022/10/28 11:43:56;;;;;;;;;;;;;;;;;;;;;
2022/10/28 12:00:50;;;;;;;;;;;;;;;;;;;;;
2022/10/28 12:12:17;;;;;;;;;6.67;4.67;;;;;29.34;36.53;101582.84;6047259;23;45630;-75
2022/10/28 12:14:55;;;;;;;;;9.67;7.33;;;;;29.30;37.08;101585.88;6208399;22;45674;-75
2022/10/28 12:17:40;;;;;;;;;8.67;7.33;;;;;29.30;36.95;101594.00;6215186;22;45398;-75
2022/10/28 12:20:38;;;;;;;;;8.33;8.33;;;;;29.16;36.78;101590.44;6186510;22;45340;-75
2022/10/28 12:23:10;;;;;;;;;9.00;6.33;;;;;28.91;37.66;101584.91;6214864;22;45492;-75
2022/10/28 12:25:39;;;;;;;;;6.67;5.00;;;;;28.79;37.12;101589.31;6186799;22;45405;-75
2022/10/28 12:28:17;;;;;;;;;11.00;8.00;;;;;28.73;37.64;101592.41;6187501;22;45203;-75
2022/10/28 12:30:46;;;;;;;;;13.67;6.67;;;;;28.76;37.86;101582.25;6214869;22;45444;-75
2022/10/28 12:33:46;;;;;;;;;10.33;9.33;;;;;28.81;37.74;101590.06;6187707;22;47979;-75
2022/10/28 12:36:20;;;;;;;;;10.67;10.00;;;;;28.94;37.87;101595.53;6109283;22;45404;-75
2022/10/28 12:39:11;;;;;;;;;9.00;9.00;;;;;29.03;37.95;101587.66;6214577;22;45168;-75
2022/10/28 12:41:58;;;;;;;;;8.00;7.00;;;;;29.28;37.23;101593.28;6187989;22;45399;-75
2022/10/28 12:44:27;;;;;;;;;8.00;6.67;;;;;29.44;37.49;101591.22;6214719;22;45360;-75
2022/10/28 12:46:56;;;;;;;;;7.00;6.00;;;;;29.65;37.51;101592.47;6187919;22;45205;-75